sensor_id;sensor_type;location;lat;lon;timestamp;pressure;altitude;pressure_sealevel;temperature;humidity
49943;BME280;36011;53.362;58.948;2023-05-09T00:01:30;97661.28;;;2.90;40.98
49943;BME280;36011;53.362;58.948;2023-05-09T00:04:34;97663.81;;;2.91;41.03
49943;BME280;36011;53.362;58.948;2023-05-09T00:07:37;97655.72;;;3.05;41.31
49943;BME280;36011;53.362;58.948;2023-05-09T00:10:43;97662.66;;;3.06;41.48
49943;BME280;36011;53.362;58.948;2023-05-09T00:13:47;97666.25;;;2.99;41.43
49943;BME280;36011;53.362;58.948;2023-05-09T00:16:51;97666.38;;;2.95;41.70
49943;BME280;36011;53.362;58.948;2023-05-09T00:19:53;97673.19;;;3.00;41.85
49943;BME280;36011;53.362;58.948;2023-05-09T00:22:57;97671.53;;;2.96;42.11
49943;BME280;36011;53.362;58.948;2023-05-09T00:26:00;97674.88;;;3.01;41.98
49943;BME280;36011;53.362;58.948;2023-05-09T00:29:04;97675.13;;;2.90;41.68
49943;BME280;36011;53.362;58.948;2023-05-09T00:32:08;97667.47;;;2.83;42.11
49943;BME280;36011;53.362;58.948;2023-05-09T00:35:11;97685.16;;;3.07;42.36
49943;BME280;36011;53.362;58.948;2023-05-09T00:38:15;97676.72;;;2.96;42.37
49943;BME280;36011;53.362;58.948;2023-05-09T00:41:18;97686.50;;;2.85;42.45
49943;BME280;36011;53.362;58.948;2023-05-09T00:44:21;97683.84;;;2.88;42.37
49943;BME280;36011;53.362;58.948;2023-05-09T00:47:28;97687.41;;;2.84;42.63
49943;BME280;36011;53.362;58.948;2023-05-09T00:50:34;97689.09;;;2.85;42.58
49943;BME280;36011;53.362;58.948;2023-05-09T00:53:35;97694.16;;;2.91;42.88
49943;BME280;36011;53.362;58.948;2023-05-09T00:56:36;97699.50;;;2.85;42.81
49943;BME280;36011;53.362;58.948;2023-05-09T00:59:40;97699.34;;;2.92;42.91
49943;BME280;36011;53.362;58.948;2023-05-09T01:02:46;97701.03;;;2.93;43.02
49943;BME280;36011;53.362;58.948;2023-05-09T01:09:01;97712.13;;;3.02;42.48
49943;BME280;36011;53.362;58.948;2023-05-09T01:12:33;97709.38;;;3.09;42.82
49943;BME280;36011;53.362;58.948;2023-05-09T01:15:36;97712.53;;;3.24;42.85
49943;BME280;36011;53.362;58.948;2023-05-09T01:18:46;97722.50;;;3.42;42.21
49943;BME280;36011;53.362;58.948;2023-05-09T01:21:49;97721.56;;;3.46;42.09
49943;BME280;36011;53.362;58.948;2023-05-09T01:25:01;97730.75;;;3.63;41.69
49943;BME280;36011;53.362;58.948;2023-05-09T01:28:12;97732.44;;;3.64;41.61
49943;BME280;36011;53.362;58.948;2023-05-09T01:31:13;97738.34;;;3.70;41.59
49943;BME280;36011;53.362;58.948;2023-05-09T01:34:16;97738.09;;;3.81;41.39
49943;BME280;36011;53.362;58.948;2023-05-09T01:37:23;97738.84;;;3.86;41.40
49943;BME280;36011;53.362;58.948;2023-05-09T01:40:30;97738.84;;;3.86;41.18
49943;BME280;36011;53.362;58.948;2023-05-09T01:43:33;97738.63;;;3.95;41.43
49943;BME280;36011;53.362;58.948;2023-05-09T01:46:36;97746.31;;;4.00;41.19
49943;BME280;36011;53.362;58.948;2023-05-09T01:49:44;97749.69;;;4.03;40.95
49943;BME280;36011;53.362;58.948;2023-05-09T01:52:49;97751.41;;;4.04;41.10
49943;BME280;36011;53.362;58.948;2023-05-09T01:55:51;97759.72;;;4.19;40.91
49943;BME280;36011;53.362;58.948;2023-05-09T01:58:56;97757.28;;;4.13;40.89
49943;BME280;36011;53.362;58.948;2023-05-09T02:01:58;97746.09;;;4.09;40.67
49943;BME280;36011;53.362;58.948;2023-05-09T02:05:00;97758.69;;;4.26;40.36
49943;BME280;36011;53.362;58.948;2023-05-09T02:08:06;97762.28;;;4.22;40.54
49943;BME280;36011;53.362;58.948;2023-05-09T02:11:10;97765.50;;;4.30;40.18
49943;BME280;36011;53.362;58.948;2023-05-09T02:14:13;97765.25;;;4.41;40.19
49943;BME280;36011;53.362;58.948;2023-05-09T02:17:14;97768.63;;;4.44;40.02
49943;BME280;36011;53.362;58.948;2023-05-09T02:20:19;97771.13;;;4.49;39.82
49943;BME280;36011;53.362;58.948;2023-05-09T02:23:22;97773.16;;;4.70;39.93
49943;BME280;36011;53.362;58.948;2023-05-09T02:26:28;97766.28;;;4.68;39.68
49943;BME280;36011;53.362;58.948;2023-05-09T02:29:32;97776.28;;;4.83;39.51
49943;BME280;36011;53.362;58.948;2023-05-09T02:32:39;97776.06;;;4.91;39.74
49943;BME280;36011;53.362;58.948;2023-05-09T02:35:45;97775.97;;;4.94;39.31
49943;BME280;36011;53.362;58.948;2023-05-09T02:38:48;97777.47;;;5.03;39.48
49943;BME280;36011;53.362;58.948;2023-05-09T02:41:49;97770.56;;;5.02;39.20
49943;BME280;36011;53.362;58.948;2023-05-09T02:44:51;97772.00;;;5.12;39.44
49943;BME280;36011;53.362;58.948;2023-05-09T02:47:52;97769.84;;;5.26;38.80
49943;BME280;36011;53.362;58.948;2023-05-09T02:50:55;97772.03;;;5.40;38.78
49943;BME280;36011;53.362;58.948;2023-05-09T02:54:02;97773.44;;;5.52;38.52
49943;BME280;36011;53.362;58.948;2023-05-09T02:57:06;97773.69;;;5.72;38.09
49943;BME280;36011;53.362;58.948;2023-05-09T03:00:09;97767.88;;;5.91;37.55
49943;BME280;36011;53.362;58.948;2023-05-09T03:03:11;97759.31;;;6.14;36.85
49943;BME280;36011;53.362;58.948;2023-05-09T03:06:13;97760.59;;;6.28;36.03
49943;BME280;36011;53.362;58.948;2023-05-09T03:09:17;97785.19;;;6.48;35.82
49943;BME280;36011;53.362;58.948;2023-05-09T03:12:20;97777.47;;;6.70;34.51
49943;BME280;36011;53.362;58.948;2023-05-09T03:15:21;97779.50;;;6.87;33.97
49943;BME280;36011;53.362;58.948;2023-05-09T03:18:24;97782.56;;;6.98;34.04
49943;BME280;36011;53.362;58.948;2023-05-09T03:21:28;97786.47;;;7.11;33.92
49943;BME280;36011;53.362;58.948;2023-05-09T03:24:36;97784.81;;;7.32;33.69
49943;BME280;36011;53.362;58.948;2023-05-09T03:27:39;97789.97;;;7.57;33.58
49943;BME280;36011;53.362;58.948;2023-05-09T03:30:43;97795.66;;;7.69;33.36
49943;BME280;36011;53.362;58.948;2023-05-09T03:33:44;97805.00;;;7.76;33.51
49943;BME280;36011;53.362;58.948;2023-05-09T03:36:50;97794.16;;;7.85;33.18
49943;BME280;36011;53.362;58.948;2023-05-09T03:39:52;97800.72;;;7.95;33.03
49943;BME280;36011;53.362;58.948;2023-05-09T03:42:58;97810.50;;;8.14;32.85
49943;BME280;36011;53.362;58.948;2023-05-09T03:45:59;97810.50;;;8.14;33.00
49943;BME280;36011;53.362;58.948;2023-05-09T03:49:05;97806.59;;;8.24;32.51
49943;BME280;36011;53.362;58.948;2023-05-09T03:52:10;97812.69;;;8.46;32.15
49943;BME280;36011;53.362;58.948;2023-05-09T03:55:12;97808.50;;;8.63;32.13
49943;BME280;36011;53.362;58.948;2023-05-09T03:58:15;97806.81;;;8.82;31.79
49943;BME280;36011;53.362;58.948;2023-05-09T04:01:20;97809.50;;;9.01;31.46
49943;BME280;36011;53.362;58.948;2023-05-09T04:04:22;97816.22;;;9.27;31.05
49943;BME280;36011;53.362;58.948;2023-05-09T04:07:27;97806.75;;;9.43;30.80
49943;BME280;36011;53.362;58.948;2023-05-09T04:10:31;97824.78;;;9.70;30.35
49943;BME280;36011;53.362;58.948;2023-05-09T04:13:32;97825.13;;;10.00;29.96
49943;BME280;36011;53.362;58.948;2023-05-09T04:16:35;97831.00;;;10.24;29.78
49943;BME280;36011;53.362;58.948;2023-05-09T04:19:42;97832.56;;;10.47;29.75
49943;BME280;36011;53.362;58.948;2023-05-09T04:22:45;97833.75;;;10.76;29.56
49943;BME280;36011;53.362;58.948;2023-05-09T04:25:47;97837.28;;;11.10;29.23
49943;BME280;36011;53.362;58.948;2023-05-09T04:28:51;97837.56;;;11.39;29.11
49943;BME280;36011;53.362;58.948;2023-05-09T04:31:55;97831.22;;;11.75;28.47
49943;BME280;36011;53.362;58.948;2023-05-09T04:34:58;97842.41;;;12.11;28.17
49943;BME280;36011;53.362;58.948;2023-05-09T04:38:01;97834.38;;;12.61;27.29
49943;BME280;36011;53.362;58.948;2023-05-09T04:41:06;97846.25;;;14.14;25.95
49943;BME280;36011;53.362;58.948;2023-05-09T04:44:10;97844.88;;;16.17;24.40
49943;BME280;36011;53.362;58.948;2023-05-09T04:47:12;97851.25;;;18.25;22.95
49943;BME280;36011;53.362;58.948;2023-05-09T04:50:15;97857.97;;;20.40;20.88
49943;BME280;36011;53.362;58.948;2023-05-09T04:53:21;97862.72;;;22.39;20.70
49943;BME280;36011;53.362;58.948;2023-05-09T04:56:24;97856.50;;;23.90;19.24
49943;BME280;36011;53.362;58.948;2023-05-09T04:59:25;97859.81;;;25.36;17.43
49943;BME280;36011;53.362;58.948;2023-05-09T05:02:28;97861.25;;;26.43;17.02
49943;BME280;36011;53.362;58.948;2023-05-09T05:05:30;97865.50;;;27.69;16.82
49943;BME280;36011;53.362;58.948;2023-05-09T05:08:31;97867.09;;;28.82;15.35
49943;BME280;36011;53.362;58.948;2023-05-09T05:11:35;97854.19;;;29.21;16.62
49943;BME280;36011;53.362;58.948;2023-05-09T05:14:36;97858.09;;;29.61;15.65
49943;BME280;36011;53.362;58.948;2023-05-09T05:17:37;97853.50;;;30.59;13.82
49943;BME280;36011;53.362;58.948;2023-05-09T05:20:39;97857.09;;;31.61;15.18
49943;BME280;36011;53.362;58.948;2023-05-09T05:23:43;97868.78;;;32.80;14.60
49943;BME280;36011;53.362;58.948;2023-05-09T05:26:46;97864.09;;;33.89;13.99
49943;BME280;36011;53.362;58.948;2023-05-09T05:29:52;97870.34;;;35.06;12.86
49943;BME280;36011;53.362;58.948;2023-05-09T05:32:55;97860.41;;;35.66;12.89
49943;BME280;36011;53.362;58.948;2023-05-09T05:35:56;97870.53;;;36.36;11.34
49943;BME280;36011;53.362;58.948;2023-05-09T05:38:59;97863.66;;;36.74;11.54
49943;BME280;36011;53.362;58.948;2023-05-09T05:42:05;97859.97;;;37.08;11.40
49943;BME280;36011;53.362;58.948;2023-05-09T05:45:06;97849.56;;;37.39;11.08
49943;BME280;36011;53.362;58.948;2023-05-09T05:48:08;97853.94;;;37.52;11.26
49943;BME280;36011;53.362;58.948;2023-05-09T05:51:09;97847.44;;;37.75;11.04
49943;BME280;36011;53.362;58.948;2023-05-09T05:54:13;97842.00;;;38.36;9.81
49943;BME280;36011;53.362;58.948;2023-05-09T05:57:16;97854.66;;;38.54;9.66
49943;BME280;36011;53.362;58.948;2023-05-09T06:00:22;97845.44;;;38.65;8.03
49943;BME280;36011;53.362;58.948;2023-05-09T06:03:23;97846.25;;;38.05;9.41
49943;BME280;36011;53.362;58.948;2023-05-09T06:06:26;97848.94;;;37.49;8.40
49943;BME280;36011;53.362;58.948;2023-05-09T06:09:34;97852.63;;;36.97;9.39
49943;BME280;36011;53.362;58.948;2023-05-09T06:12:37;97837.31;;;35.62;9.53
49943;BME280;36011;53.362;58.948;2023-05-09T06:15:41;97836.66;;;34.76;10.78
49943;BME280;36011;53.362;58.948;2023-05-09T06:18:42;97835.56;;;34.95;9.43
49943;BME280;36011;53.362;58.948;2023-05-09T06:21:45;97830.28;;;35.12;9.63
49943;BME280;36011;53.362;58.948;2023-05-09T06:24:49;97830.50;;;36.23;8.94
49943;BME280;36011;53.362;58.948;2023-05-09T06:27:53;97826.25;;;37.25;7.93
49943;BME280;36011;53.362;58.948;2023-05-09T06:30:57;97833.47;;;37.60;7.25
49943;BME280;36011;53.362;58.948;2023-05-09T06:34:01;97832.31;;;38.72;7.64
49943;BME280;36011;53.362;58.948;2023-05-09T06:37:04;97830.84;;;38.87;7.40
49943;BME280;36011;53.362;58.948;2023-05-09T06:40:06;97839.34;;;39.12;7.62
49943;BME280;36011;53.362;58.948;2023-05-09T06:43:09;97836.97;;;39.48;6.99
49943;BME280;36011;53.362;58.948;2023-05-09T06:46:15;97833.28;;;40.07;6.80
49943;BME280;36011;53.362;58.948;2023-05-09T06:49:19;97837.56;;;40.30;7.66
49943;BME280;36011;53.362;58.948;2023-05-09T06:52:25;97833.47;;;40.32;6.78
49943;BME280;36011;53.362;58.948;2023-05-09T06:55:26;97833.13;;;40.24;7.50
49943;BME280;36011;53.362;58.948;2023-05-09T06:58:29;97834.34;;;41.47;7.08
49943;BME280;36011;53.362;58.948;2023-05-09T07:01:31;97828.56;;;41.64;6.98
49943;BME280;36011;53.362;58.948;2023-05-09T07:04:32;97819.97;;;41.86;5.92
49943;BME280;36011;53.362;58.948;2023-05-09T07:07:36;97821.53;;;42.38;6.53
49943;BME280;36011;53.362;58.948;2023-05-09T07:10:40;97818.44;;;43.04;6.21
49943;BME280;36011;53.362;58.948;2023-05-09T07:13:43;97815.25;;;43.95;6.47
49943;BME280;36011;53.362;58.948;2023-05-09T07:16:44;97808.97;;;43.55;5.82
49943;BME280;36011;53.362;58.948;2023-05-09T07:19:46;97808.50;;;43.43;6.52
49943;BME280;36011;53.362;58.948;2023-05-09T07:22:50;97809.38;;;43.72;4.80
49943;BME280;36011;53.362;58.948;2023-05-09T07:25:57;97803.03;;;43.33;6.13
49943;BME280;36011;53.362;58.948;2023-05-09T07:28:58;97801.47;;;43.21;6.07
49943;BME280;36011;53.362;58.948;2023-05-09T07:32:01;97791.66;;;42.95;5.78
49943;BME280;36011;53.362;58.948;2023-05-09T07:35:04;97795.75;;;42.53;6.38
49943;BME280;36011;53.362;58.948;2023-05-09T07:38:09;97778.81;;;41.33;6.34
49943;BME280;36011;53.362;58.948;2023-05-09T07:41:13;97781.94;;;40.43;6.24
49943;BME280;36011;53.362;58.948;2023-05-09T07:44:17;97766.00;;;39.60;6.71
49943;BME280;36011;53.362;58.948;2023-05-09T07:47:20;97766.56;;;38.98;6.52
49943;BME280;36011;53.362;58.948;2023-05-09T07:50:21;97758.69;;;37.91;6.67
49943;BME280;36011;53.362;58.948;2023-05-09T07:53:25;97748.56;;;37.41;7.07
49943;BME280;36011;53.362;58.948;2023-05-09T07:56:31;97761.16;;;36.75;6.97
49943;BME280;36011;53.362;58.948;2023-05-09T07:59:32;97753.16;;;35.69;8.04
49943;BME280;36011;53.362;58.948;2023-05-09T08:02:36;97754.78;;;35.35;7.67
49943;BME280;36011;53.362;58.948;2023-05-09T08:05:39;97747.56;;;34.98;7.37
49943;BME280;36011;53.362;58.948;2023-05-09T08:08:43;97748.88;;;34.35;7.93
49943;BME280;36011;53.362;58.948;2023-05-09T08:11:44;97742.38;;;34.18;7.62
49943;BME280;36011;53.362;58.948;2023-05-09T08:14:47;97738.25;;;33.90;7.96
49943;BME280;36011;53.362;58.948;2023-05-09T08:17:55;97736.38;;;33.47;7.76
49943;BME280;36011;53.362;58.948;2023-05-09T08:20:56;97730.59;;;32.87;8.07
49943;BME280;36011;53.362;58.948;2023-05-09T08:23:59;97726.94;;;32.23;8.23
49943;BME280;36011;53.362;58.948;2023-05-09T08:27:06;97735.06;;;31.71;8.71
49943;BME280;36011;53.362;58.948;2023-05-09T08:30:07;97735.31;;;31.23;8.77
49943;BME280;36011;53.362;58.948;2023-05-09T08:33:11;97721.97;;;30.20;8.76
49943;BME280;36011;53.362;58.948;2023-05-09T08:36:15;97720.03;;;30.08;9.03
49943;BME280;36011;53.362;58.948;2023-05-09T08:39:16;97718.09;;;30.50;9.16
49943;BME280;36011;53.362;58.948;2023-05-09T08:42:21;97716.22;;;29.95;8.94
49943;BME280;36011;53.362;58.948;2023-05-09T08:45:24;97714.06;;;29.49;9.32
49943;BME280;36011;53.362;58.948;2023-05-09T08:48:27;97702.38;;;29.14;9.19
49943;BME280;36011;53.362;58.948;2023-05-09T08:51:30;97712.38;;;29.14;9.27
49943;BME280;36011;53.362;58.948;2023-05-09T08:54:32;97696.72;;;29.44;9.06
49943;BME280;36011;53.362;58.948;2023-05-09T08:57:34;97701.38;;;29.50;9.27
49943;BME280;36011;53.362;58.948;2023-05-09T09:00:35;97707.13;;;29.40;9.06
49943;BME280;36011;53.362;58.948;2023-05-09T09:03:38;97694.63;;;28.90;9.20
49943;BME280;36011;53.362;58.948;2023-05-09T09:06:40;97695.25;;;28.63;9.49
49943;BME280;36011;53.362;58.948;2023-05-09T09:09:45;97693.63;;;28.69;9.51
49943;BME280;36011;53.362;58.948;2023-05-09T09:12:49;97690.25;;;28.67;9.62
49943;BME280;36011;53.362;58.948;2023-05-09T09:15:54;97693.00;;;28.31;9.77
49943;BME280;36011;53.362;58.948;2023-05-09T09:18:58;97680.75;;;28.13;9.75
49943;BME280;36011;53.362;58.948;2023-05-09T09:22:04;97686.81;;;28.15;9.83
49943;BME280;36011;53.362;58.948;2023-05-09T09:25:09;97682.22;;;28.74;9.58
49943;BME280;36011;53.362;58.948;2023-05-09T09:28:10;97683.34;;;28.86;9.51
49943;BME280;36011;53.362;58.948;2023-05-09T09:31:24;97684.88;;;29.17;9.39
49943;BME280;36011;53.362;58.948;2023-05-09T09:34:29;97681.88;;;29.68;8.90
49943;BME280;36011;53.362;58.948;2023-05-09T09:37:30;97677.72;;;29.72;9.13
49943;BME280;36011;53.362;58.948;2023-05-09T09:40:35;97676.50;;;30.42;8.90
49943;BME280;36011;53.362;58.948;2023-05-09T09:43:44;97681.97;;;31.22;8.48
49943;BME280;36011;53.362;58.948;2023-05-09T09:46:49;97683.81;;;31.62;8.53
49943;BME280;36011;53.362;58.948;2023-05-09T09:49:51;97670.41;;;31.73;8.46
49943;BME280;36011;53.362;58.948;2023-05-09T09:52:52;97678.50;;;31.93;7.94
49943;BME280;36011;53.362;58.948;2023-05-09T09:55:55;97686.59;;;32.13;7.89
49943;BME280;36011;53.362;58.948;2023-05-09T09:59:08;97670.34;;;31.93;7.94
49943;BME280;36011;53.362;58.948;2023-05-09T10:02:11;97664.81;;;32.13;7.75
49943;BME280;36011;53.362;58.948;2023-05-09T10:05:18;97664.97;;;32.57;7.94
49943;BME280;36011;53.362;58.948;2023-05-09T10:08:20;97667.91;;;32.55;7.73
49943;BME280;36011;53.362;58.948;2023-05-09T10:11:26;97665.75;;;31.81;8.15
49943;BME280;36011;53.362;58.948;2023-05-09T10:14:27;97668.00;;;31.12;8.33
49943;BME280;36011;53.362;58.948;2023-05-09T10:17:34;97657.72;;;30.48;8.55
49943;BME280;36011;53.362;58.948;2023-05-09T10:20:40;97648.72;;;30.27;8.62
49943;BME280;36011;53.362;58.948;2023-05-09T10:23:45;97642.75;;;29.97;8.79
49943;BME280;36011;53.362;58.948;2023-05-09T10:26:48;97641.09;;;29.13;9.10
49943;BME280;36011;53.362;58.948;2023-05-09T10:29:50;97636.88;;;28.18;9.54
49943;BME280;36011;53.362;58.948;2023-05-09T10:33:03;97636.00;;;27.45;9.85
49943;BME280;36011;53.362;58.948;2023-05-09T10:36:06;97632.31;;;27.08;10.26
49943;BME280;36011;53.362;58.948;2023-05-09T10:39:09;97639.09;;;26.89;10.22
49943;BME280;36011;53.362;58.948;2023-05-09T10:42:16;97635.78;;;26.41;10.51
49943;BME280;36011;53.362;58.948;2023-05-09T10:45:22;97635.53;;;26.13;10.68
49943;BME280;36011;53.362;58.948;2023-05-09T10:48:23;97635.41;;;25.98;10.76
49943;BME280;36011;53.362;58.948;2023-05-09T10:51:27;97638.44;;;25.64;10.86
49943;BME280;36011;53.362;58.948;2023-05-09T10:54:35;97637.34;;;25.81;10.84
49943;BME280;36011;53.362;58.948;2023-05-09T10:57:36;97624.63;;;25.98;10.73
49943;BME280;36011;53.362;58.948;2023-05-09T11:00:41;97626.13;;;26.01;10.67
49943;BME280;36011;53.362;58.948;2023-05-09T11:06:58;97624.81;;;26.42;10.58
49943;BME280;36011;53.362;58.948;2023-05-09T11:10:08;97620.13;;;26.22;10.33
49943;BME280;36011;53.362;58.948;2023-05-09T11:13:12;97611.94;;;26.30;10.50
49943;BME280;36011;53.362;58.948;2023-05-09T11:16:13;97613.38;;;26.40;10.20
49943;BME280;36011;53.362;58.948;2023-05-09T11:19:32;97612.09;;;25.82;10.81
49943;BME280;36011;53.362;58.948;2023-05-09T11:22:37;97613.56;;;25.14;11.20
49943;BME280;36011;53.362;58.948;2023-05-09T11:25:46;97603.66;;;24.98;11.35
49943;BME280;36011;53.362;58.948;2023-05-09T11:28:51;97610.41;;;24.86;11.41
49943;BME280;36011;53.362;58.948;2023-05-09T11:32:06;97602.72;;;24.75;11.25
49943;BME280;36011;53.362;58.948;2023-05-09T11:35:11;97610.94;;;24.73;11.44
49943;BME280;36011;53.362;58.948;2023-05-09T11:38:19;97608.09;;;24.42;11.37
49943;BME280;36011;53.362;58.948;2023-05-09T11:41:20;97605.56;;;24.16;11.59
49943;BME280;36011;53.362;58.948;2023-05-09T11:44:22;97605.38;;;24.17;11.81
49943;BME280;36011;53.362;58.948;2023-05-09T11:47:24;97606.72;;;24.13;11.84
49943;BME280;36011;53.362;58.948;2023-05-09T11:50:28;97596.16;;;24.04;11.73
49943;BME280;36011;53.362;58.948;2023-05-09T11:53:31;97593.56;;;23.78;11.92
49943;BME280;36011;53.362;58.948;2023-05-09T11:56:36;97590.22;;;23.92;11.95
49943;BME280;36011;53.362;58.948;2023-05-09T11:59:37;97584.22;;;24.23;11.94
49943;BME280;36011;53.362;58.948;2023-05-09T12:02:42;97576.31;;;24.13;11.86
49943;BME280;36011;53.362;58.948;2023-05-09T12:05:43;97582.19;;;23.84;12.10
49943;BME280;36011;53.362;58.948;2023-05-09T12:08:48;97577.75;;;23.58;12.24
49943;BME280;36011;53.362;58.948;2023-05-09T12:11:52;97582.63;;;23.20;12.50
49943;BME280;36011;53.362;58.948;2023-05-09T12:14:54;97591.00;;;23.17;12.38
49943;BME280;36011;53.362;58.948;2023-05-09T12:18:02;97578.53;;;23.42;12.38
49943;BME280;36011;53.362;58.948;2023-05-09T12:21:06;97579.50;;;23.33;12.72
49943;BME280;36011;53.362;58.948;2023-05-09T12:24:10;97583.56;;;23.03;12.62
49943;BME280;36011;53.362;58.948;2023-05-09T12:27:17;97579.47;;;22.91;12.61
49943;BME280;36011;53.362;58.948;2023-05-09T12:30:23;97585.69;;;22.65;12.88
49943;BME280;36011;53.362;58.948;2023-05-09T12:33:26;97579.88;;;22.26;13.07
49943;BME280;36011;53.362;58.948;2023-05-09T12:36:32;97575.34;;;21.55;13.45
49943;BME280;36011;53.362;58.948;2023-05-09T12:39:39;97577.00;;;21.56;13.50
49943;BME280;36011;53.362;58.948;2023-05-09T12:42:44;97565.84;;;21.78;13.25
49943;BME280;36011;53.362;58.948;2023-05-09T12:45:48;97573.81;;;21.70;13.42
49943;BME280;36011;53.362;58.948;2023-05-09T12:48:54;97576.84;;;21.29;13.74
49943;BME280;36011;53.362;58.948;2023-05-09T12:51:59;97577.44;;;20.96;13.69
49943;BME280;36011;53.362;58.948;2023-05-09T12:55:07;97584.41;;;20.79;13.81
49943;BME280;36011;53.362;58.948;2023-05-09T12:58:13;97578.81;;;20.62;14.16
49943;BME280;36011;53.362;58.948;2023-05-09T13:01:17;97562.53;;;20.27;14.18
49943;BME280;36011;53.362;58.948;2023-05-09T13:04:18;97572.03;;;19.82;14.31
49943;BME280;36011;53.362;58.948;2023-05-09T13:07:19;97581.63;;;19.35;15.02
49943;BME280;36011;53.362;58.948;2023-05-09T13:10:24;97582.06;;;18.99;14.91
49943;BME280;36011;53.362;58.948;2023-05-09T13:13:29;97582.56;;;18.83;15.19
49943;BME280;36011;53.362;58.948;2023-05-09T13:16:33;97585.09;;;18.64;15.23
49943;BME280;36011;53.362;58.948;2023-05-09T13:19:37;97590.78;;;18.50;15.09
49943;BME280;36011;53.362;58.948;2023-05-09T13:22:39;97585.59;;;18.27;15.53
49943;BME280;36011;53.362;58.948;2023-05-09T13:25:42;97588.06;;;18.19;15.49
49943;BME280;36011;53.362;58.948;2023-05-09T13:28:43;97581.84;;;18.09;15.59
49943;BME280;36011;53.362;58.948;2023-05-09T13:31:49;97573.56;;;17.91;15.79
49943;BME280;36011;53.362;58.948;2023-05-09T13:34:50;97569.75;;;17.72;15.71
49943;BME280;36011;53.362;58.948;2023-05-09T13:37:54;97572.34;;;17.51;15.95
49943;BME280;36011;53.362;58.948;2023-05-09T13:40:59;97570.47;;;17.31;16.06
49943;BME280;36011;53.362;58.948;2023-05-09T13:44:00;97575.06;;;17.18;16.08
49943;BME280;36011;53.362;58.948;2023-05-09T13:47:02;97577.50;;;17.10;16.36
49943;BME280;36011;53.362;58.948;2023-05-09T13:50:03;97587.44;;;16.96;16.50
49943;BME280;36011;53.362;58.948;2023-05-09T13:53:09;97576.44;;;16.90;16.40
49943;BME280;36011;53.362;58.948;2023-05-09T13:56:13;97582.84;;;16.87;16.52
49943;BME280;36011;53.362;58.948;2023-05-09T13:59:14;97585.28;;;16.90;16.55
49943;BME280;36011;53.362;58.948;2023-05-09T14:02:15;97576.16;;;17.04;16.41
49943;BME280;36011;53.362;58.948;2023-05-09T14:05:18;97572.19;;;16.98;16.47
49943;BME280;36011;53.362;58.948;2023-05-09T14:08:19;97573.91;;;16.88;16.93
49943;BME280;36011;53.362;58.948;2023-05-09T14:11:25;97574.63;;;16.79;16.59
49943;BME280;36011;53.362;58.948;2023-05-09T14:14:31;97571.72;;;16.71;16.61
49943;BME280;36011;53.362;58.948;2023-05-09T14:17:34;97576.03;;;16.60;16.76
49943;BME280;36011;53.362;58.948;2023-05-09T14:20:35;97569.97;;;16.47;16.95
49943;BME280;36011;53.362;58.948;2023-05-09T14:23:40;97574.34;;;16.37;16.99
49943;BME280;36011;53.362;58.948;2023-05-09T14:26:43;97567.78;;;16.30;17.04
49943;BME280;36011;53.362;58.948;2023-05-09T14:29:44;97569.47;;;16.20;17.09
49943;BME280;36011;53.362;58.948;2023-05-09T14:32:48;97572.56;;;16.02;17.36
49943;BME280;36011;53.362;58.948;2023-05-09T14:35:51;97571.84;;;15.76;17.49
49943;BME280;36011;53.362;58.948;2023-05-09T14:38:52;97566.84;;;15.60;17.56
49943;BME280;36011;53.362;58.948;2023-05-09T14:41:53;97564.13;;;15.49;17.78
49943;BME280;36011;53.362;58.948;2023-05-09T14:44:57;97559.53;;;15.51;18.22
49943;BME280;36011;53.362;58.948;2023-05-09T14:48:03;97562.19;;;15.27;18.10
49943;BME280;36011;53.362;58.948;2023-05-09T14:51:06;97560.91;;;15.33;18.51
49943;BME280;36011;53.362;58.948;2023-05-09T14:54:10;97561.09;;;15.05;18.39
49943;BME280;36011;53.362;58.948;2023-05-09T14:57:13;97561.22;;;14.91;18.45
49943;BME280;36011;53.362;58.948;2023-05-09T15:00:17;97563.78;;;14.80;18.42
49943;BME280;36011;53.362;58.948;2023-05-09T15:03:19;97561.72;;;14.72;18.55
49943;BME280;36011;53.362;58.948;2023-05-09T15:06:20;97557.69;;;14.67;18.55
49943;BME280;36011;53.362;58.948;2023-05-09T15:09:23;97556.41;;;14.59;18.73
49943;BME280;36011;53.362;58.948;2023-05-09T15:12:24;97554.69;;;14.46;18.76
49943;BME280;36011;53.362;58.948;2023-05-09T15:15:28;97556.41;;;14.47;19.17
49943;BME280;36011;53.362;58.948;2023-05-09T15:18:31;97556.06;;;14.26;19.32
49943;BME280;36011;53.362;58.948;2023-05-09T15:21:33;97557.56;;;14.17;19.22
49943;BME280;36011;53.362;58.948;2023-05-09T15:24:34;97558.19;;;14.08;19.36
49943;BME280;36011;53.362;58.948;2023-05-09T15:27:36;97548.13;;;14.00;19.33
49943;BME280;36011;53.362;58.948;2023-05-09T15:30:40;97548.34;;;13.97;19.20
49943;BME280;36011;53.362;58.948;2023-05-09T15:33:43;97555.09;;;13.88;19.43
49943;BME280;36011;53.362;58.948;2023-05-09T15:36:44;97551.91;;;13.83;19.42
49943;BME280;36011;53.362;58.948;2023-05-09T15:39:50;97551.47;;;13.77;19.87
49943;BME280;36011;53.362;58.948;2023-05-09T15:42:53;97557.38;;;13.67;20.05
49943;BME280;36011;53.362;58.948;2023-05-09T15:45:57;97552.47;;;13.61;20.13
49943;BME280;36011;53.362;58.948;2023-05-09T15:48:58;97558.19;;;13.55;20.04
49943;BME280;36011;53.362;58.948;2023-05-09T15:51:59;97553.41;;;13.47;20.01
49943;BME280;36011;53.362;58.948;2023-05-09T15:55:08;97562.28;;;13.46;20.26
49943;BME280;36011;53.362;58.948;2023-05-09T15:58:12;97557.47;;;13.39;20.27
49943;BME280;36011;53.362;58.948;2023-05-09T16:01:16;97566.56;;;13.35;20.20
49943;BME280;36011;53.362;58.948;2023-05-09T16:04:19;97572.91;;;13.32;20.39
49943;BME280;36011;53.362;58.948;2023-05-09T16:07:23;97571.31;;;13.30;20.54
49943;BME280;36011;53.362;58.948;2023-05-09T16:10:27;97567.34;;;13.22;20.59
49943;BME280;36011;53.362;58.948;2023-05-09T16:13:32;97571.44;;;13.14;20.83